sensor_id;sensor_type;location;lat;lon;timestamp;temperature;humidity
14188;DHT22;7175;51.978;5.330;2023-11-21T00:00:08;8.00;99.90
14188;DHT22;7175;51.978;5.330;2023-11-21T00:02:39;7.90;99.90
14188;DHT22;7175;51.978;5.330;2023-11-21T00:05:10;7.90;99.90
14188;DHT22;7175;51.978;5.330;2023-11-21T00:07:39;7.90;99.90
14188;DHT22;7175;51.978;5.330;2023-11-21T00:10:09;7.90;99.90
14188;DHT22;7175;51.978;5.330;2023-11-21T00:12:38;7.80;99.90
14188;DHT22;7175;51.978;5.330;2023-11-21T00:15:09;7.90;99.90
14188;DHT22;7175;51.978;5.330;2023-11-21T00:17:39;7.80;99.90
14188;DHT22;7175;51.978;5.330;2023-11-21T00:20:10;7.80;99.90
14188;DHT22;7175;51.978;5.330;2023-11-21T00:22:40;7.70;99.90
14188;DHT22;7175;51.978;5.330;2023-11-21T00:25:10;7.70;99.90
14188;DHT22;7175;51.978;5.330;2023-11-21T00:27:38;7.70;99.90
14188;DHT22;7175;51.978;5.330;2023-11-21T00:30:07;7.60;99.90
14188;DHT22;7175;51.978;5.330;2023-11-21T00:32:36;7.60;99.90
14188;DHT22;7175;51.978;5.330;2023-11-21T00:35:05;7.60;99.90
14188;DHT22;7175;51.978;5.330;2023-11-21T00:37:35;7.50;99.90
14188;DHT22;7175;51.978;5.330;2023-11-21T00:40:04;7.50;99.90
14188;DHT22;7175;51.978;5.330;2023-11-21T00:42:33;7.40;99.90
14188;DHT22;7175;51.978;5.330;2023-11-21T00:45:01;7.40;99.90
14188;DHT22;7175;51.978;5.330;2023-11-21T00:47:30;7.40;99.90
14188;DHT22;7175;51.978;5.330;2023-11-21T00:49:58;7.40;99.90
14188;DHT22;7175;51.978;5.330;2023-11-21T00:52:26;7.30;99.90
14188;DHT22;7175;51.978;5.330;2023-11-21T00:54:56;7.30;99.90
14188;DHT22;7175;51.978;5.330;2023-11-21T00:57:27;7.30;99.90
14188;DHT22;7175;51.978;5.330;2023-11-21T00:59:55;7.30;99.90
14188;DHT22;7175;51.978;5.330;2023-11-21T01:02:23;7.20;99.90
14188;DHT22;7175;51.978;5.330;2023-11-21T01:04:52;7.20;99.90
14188;DHT22;7175;51.978;5.330;2023-11-21T01:07:20;7.30;99.90
14188;DHT22;7175;51.978;5.330;2023-11-21T01:09:49;7.20;99.90
14188;DHT22;7175;51.978;5.330;2023-11-21T01:12:18;7.20;99.90
14188;DHT22;7175;51.978;5.330;2023-11-21T01:14:47;7.30;99.90
14188;DHT22;7175;51.978;5.330;2023-11-21T01:17:15;7.30;99.90
14188;DHT22;7175;51.978;5.330;2023-11-21T01:19:45;7.30;99.90
14188;DHT22;7175;51.978;5.330;2023-11-21T01:22:13;7.30;99.90
14188;DHT22;7175;51.978;5.330;2023-11-21T01:24:43;7.30;99.90
14188;DHT22;7175;51.978;5.330;2023-11-21T01:27:11;7.30;99.90
14188;DHT22;7175;51.978;5.330;2023-11-21T01:29:40;7.30;99.90
14188;DHT22;7175;51.978;5.330;2023-11-21T01:32:09;7.20;99.90
14188;DHT22;7175;51.978;5.330;2023-11-21T01:34:37;7.20;99.90
14188;DHT22;7175;51.978;5.330;2023-11-21T01:37:05;7.10;99.90
14188;DHT22;7175;51.978;5.330;2023-11-21T01:39:34;7.10;99.90
14188;DHT22;7175;51.978;5.330;2023-11-21T01:42:02;7.10;99.90
14188;DHT22;7175;51.978;5.330;2023-11-21T01:44:30;7.10;99.90
14188;DHT22;7175;51.978;5.330;2023-11-21T01:47:00;7.20;99.90
14188;DHT22;7175;51.978;5.330;2023-11-21T01:49:32;7.10;99.90
14188;DHT22;7175;51.978;5.330;2023-11-21T01:52:00;7.20;99.90
14188;DHT22;7175;51.978;5.330;2023-11-21T01:54:29;7.10;99.90
14188;DHT22;7175;51.978;5.330;2023-11-21T01:56:58;7.10;99.90
14188;DHT22;7175;51.978;5.330;2023-11-21T01:59:33;7.20;99.90
14188;DHT22;7175;51.978;5.330;2023-11-21T02:02:06;7.20;99.90
14188;DHT22;7175;51.978;5.330;2023-11-21T02:04:34;7.20;99.90
14188;DHT22;7175;51.978;5.330;2023-11-21T02:07:03;7.30;99.90
14188;DHT22;7175;51.978;5.330;2023-11-21T02:09:32;7.30;99.90
14188;DHT22;7175;51.978;5.330;2023-11-21T02:12:01;7.30;99.90
14188;DHT22;7175;51.978;5.330;2023-11-21T02:14:29;7.40;99.90
14188;DHT22;7175;51.978;5.330;2023-11-21T02:16:58;7.50;99.90
14188;DHT22;7175;51.978;5.330;2023-11-21T02:19:29;7.50;99.90
14188;DHT22;7175;51.978;5.330;2023-11-21T02:21:59;7.50;99.90
14188;DHT22;7175;51.978;5.330;2023-11-21T02:24:32;7.60;99.90
14188;DHT22;7175;51.978;5.330;2023-11-21T02:27:01;7.50;99.90
14188;DHT22;7175;51.978;5.330;2023-11-21T02:29:29;7.50;99.90
14188;DHT22;7175;51.978;5.330;2023-11-21T02:31:57;7.50;99.90
14188;DHT22;7175;51.978;5.330;2023-11-21T02:34:26;7.60;99.90
14188;DHT22;7175;51.978;5.330;2023-11-21T02:36:56;7.70;99.90
14188;DHT22;7175;51.978;5.330;2023-11-21T02:39:24;7.70;99.90
14188;DHT22;7175;51.978;5.330;2023-11-21T02:41:54;7.70;99.90
14188;DHT22;7175;51.978;5.330;2023-11-21T02:44:23;7.80;99.90
14188;DHT22;7175;51.978;5.330;2023-11-21T02:46:51;7.80;99.90
14188;DHT22;7175;51.978;5.330;2023-11-21T02:49:19;7.80;99.90
14188;DHT22;7175;51.978;5.330;2023-11-21T02:51:47;7.90;99.90
14188;DHT22;7175;51.978;5.330;2023-11-21T02:54:15;7.90;99.90
14188;DHT22;7175;51.978;5.330;2023-11-21T02:56:46;7.90;99.90
14188;DHT22;7175;51.978;5.330;2023-11-21T02:59:15;8.00;99.90
14188;DHT22;7175;51.978;5.330;2023-11-21T03:01:44;8.00;99.90
14188;DHT22;7175;51.978;5.330;2023-11-21T03:04:12;8.00;99.90
14188;DHT22;7175;51.978;5.330;2023-11-21T03:06:44;8.00;99.90
14188;DHT22;7175;51.978;5.330;2023-11-21T03:09:12;8.00;99.90
14188;DHT22;7175;51.978;5.330;2023-11-21T03:11:40;8.10;99.90
14188;DHT22;7175;51.978;5.330;2023-11-21T03:14:08;8.20;99.90
14188;DHT22;7175;51.978;5.330;2023-11-21T03:16:39;8.20;99.90
14188;DHT22;7175;51.978;5.330;2023-11-21T03:19:08;8.20;99.90
14188;DHT22;7175;51.978;5.330;2023-11-21T03:21:36;8.20;99.90
14188;DHT22;7175;51.978;5.330;2023-11-21T03:24:05;8.20;99.90
14188;DHT22;7175;51.978;5.330;2023-11-21T03:26:34;8.30;99.90
14188;DHT22;7175;51.978;5.330;2023-11-21T03:29:02;8.30;99.90
14188;DHT22;7175;51.978;5.330;2023-11-21T03:31:31;8.40;99.90
14188;DHT22;7175;51.978;5.330;2023-11-21T03:34:01;8.30;99.90
14188;DHT22;7175;51.978;5.330;2023-11-21T03:36:30;8.30;99.90
14188;DHT22;7175;51.978;5.330;2023-11-21T03:38:58;8.30;99.90
14188;DHT22;7175;51.978;5.330;2023-11-21T03:41:26;8.30;99.90
14188;DHT22;7175;51.978;5.330;2023-11-21T03:43:55;8.40;99.90
14188;DHT22;7175;51.978;5.330;2023-11-21T03:46:23;8.40;99.90
14188;DHT22;7175;51.978;5.330;2023-11-21T03:48:51;8.30;99.90
14188;DHT22;7175;51.978;5.330;2023-11-21T03:51:20;8.40;99.90
14188;DHT22;7175;51.978;5.330;2023-11-21T03:53:48;8.40;99.90
14188;DHT22;7175;51.978;5.330;2023-11-21T03:56:18;8.40;99.90
14188;DHT22;7175;51.978;5.330;2023-11-21T03:58:46;8.40;99.90
14188;DHT22;7175;51.978;5.330;2023-11-21T04:01:20;8.30;99.90
14188;DHT22;7175;51.978;5.330;2023-11-21T04:03:48;8.20;99.90
14188;DHT22;7175;51.978;5.330;2023-11-21T04:06:17;8.20;99.90
14188;DHT22;7175;51.978;5.330;2023-11-21T04:08:46;8.10;99.90
14188;DHT22;7175;51.978;5.330;2023-11-21T04:11:15;8.20;99.90
14188;DHT22;7175;51.978;5.330;2023-11-21T04:13:43;8.20;99.90
14188;DHT22;7175;51.978;5.330;2023-11-21T04:16:11;8.10;99.90
14188;DHT22;7175;51.978;5.330;2023-11-21T04:18:39;8.20;99.90
14188;DHT22;7175;51.978;5.330;2023-11-21T04:21:08;8.20;99.90
14188;DHT22;7175;51.978;5.330;2023-11-21T04:23:36;8.20;99.90
14188;DHT22;7175;51.978;5.330;2023-11-21T04:26:06;8.30;99.90
14188;DHT22;7175;51.978;5.330;2023-11-21T04:28:34;8.30;99.90
14188;DHT22;7175;51.978;5.330;2023-11-21T04:31:02;8.30;99.90
14188;DHT22;7175;51.978;5.330;2023-11-21T04:33:30;8.40;99.90
14188;DHT22;7175;51.978;5.330;2023-11-21T04:35:58;8.30;99.90
14188;DHT22;7175;51.978;5.330;2023-11-21T04:38:26;8.30;99.90
14188;DHT22;7175;51.978;5.330;2023-11-21T04:40:55;8.40;99.90
14188;DHT22;7175;51.978;5.330;2023-11-21T04:43:26;8.40;99.90
14188;DHT22;7175;51.978;5.330;2023-11-21T04:45:55;8.50;99.90
14188;DHT22;7175;51.978;5.330;2023-11-21T04:48:25;8.50;99.90
14188;DHT22;7175;51.978;5.330;2023-11-21T04:50:55;8.60;99.90
14188;DHT22;7175;51.978;5.330;2023-11-21T04:53:23;8.60;99.90
14188;DHT22;7175;51.978;5.330;2023-11-21T04:55:51;8.60;99.90
14188;DHT22;7175;51.978;5.330;2023-11-21T04:58:19;8.60;99.90
14188;DHT22;7175;51.978;5.330;2023-11-21T05:00:49;8.60;99.90
14188;DHT22;7175;51.978;5.330;2023-11-21T05:03:17;8.70;99.90
14188;DHT22;7175;51.978;5.330;2023-11-21T05:05:46;8.70;99.90
14188;DHT22;7175;51.978;5.330;2023-11-21T05:08:14;8.70;99.90
14188;DHT22;7175;51.978;5.330;2023-11-21T05:10:42;8.70;99.90
14188;DHT22;7175;51.978;5.330;2023-11-21T05:13:10;8.80;99.90
14188;DHT22;7175;51.978;5.330;2023-11-21T05:15:39;8.80;99.90
14188;DHT22;7175;51.978;5.330;2023-11-21T05:18:09;8.70;99.90
14188;DHT22;7175;51.978;5.330;2023-11-21T05:20:38;8.80;99.90
14188;DHT22;7175;51.978;5.330;2023-11-21T05:23:06;8.90;99.90
14188;DHT22;7175;51.978;5.330;2023-11-21T05:25:34;8.90;99.90
14188;DHT22;7175;51.978;5.330;2023-11-21T05:28:06;8.80;99.90
14188;DHT22;7175;51.978;5.330;2023-11-21T05:30:35;8.90;99.90
14188;DHT22;7175;51.978;5.330;2023-11-21T05:33:03;9.00;99.90
14188;DHT22;7175;51.978;5.330;2023-11-21T05:35:32;8.90;99.90
14188;DHT22;7175;51.978;5.330;2023-11-21T05:38:00;9.00;99.90
14188;DHT22;7175;51.978;5.330;2023-11-21T05:40:29;8.90;99.90
14188;DHT22;7175;51.978;5.330;2023-11-21T05:42:57;8.90;99.90
14188;DHT22;7175;51.978;5.330;2023-11-21T05:45:26;8.90;99.90
14188;DHT22;7175;51.978;5.330;2023-11-21T05:47:55;9.00;99.90
14188;DHT22;7175;51.978;5.330;2023-11-21T05:50:24;8.90;99.90
14188;DHT22;7175;51.978;5.330;2023-11-21T05:52:53;8.90;99.90
14188;DHT22;7175;51.978;5.330;2023-11-21T05:55:22;9.00;99.90
14188;DHT22;7175;51.978;5.330;2023-11-21T05:57:53;9.10;99.90
14188;DHT22;7175;51.978;5.330;2023-11-21T06:00:21;9.10;99.90
14188;DHT22;7175;51.978;5.330;2023-11-21T06:02:52;9.10;99.90
14188;DHT22;7175;51.978;5.330;2023-11-21T06:05:23;9.10;99.90
14188;DHT22;7175;51.978;5.330;2023-11-21T06:07:55;9.20;99.90
14188;DHT22;7175;51.978;5.330;2023-11-21T06:10:26;9.20;99.90
14188;DHT22;7175;51.978;5.330;2023-11-21T06:12:55;9.20;99.90
14188;DHT22;7175;51.978;5.330;2023-11-21T06:15:29;9.20;99.90
14188;DHT22;7175;51.978;5.330;2023-11-21T06:17:57;9.30;99.90
14188;DHT22;7175;51.978;5.330;2023-11-21T06:20:26;9.30;99.90
14188;DHT22;7175;51.978;5.330;2023-11-21T06:22:56;9.30;99.90
14188;DHT22;7175;51.978;5.330;2023-11-21T06:25:24;9.40;99.90
14188;DHT22;7175;51.978;5.330;2023-11-21T06:27:52;9.40;99.90
14188;DHT22;7175;51.978;5.330;2023-11-21T06:30:21;9.40;99.90
14188;DHT22;7175;51.978;5.330;2023-11-21T06:32:50;9.40;99.90
14188;DHT22;7175;51.978;5.330;2023-11-21T06:35:19;9.50;99.90
14188;DHT22;7175;51.978;5.330;2023-11-21T06:37:48;9.50;99.90
14188;DHT22;7175;51.978;5.330;2023-11-21T06:40:19;9.50;99.90
14188;DHT22;7175;51.978;5.330;2023-11-21T06:42:48;9.50;99.90
14188;DHT22;7175;51.978;5.330;2023-11-21T06:45:22;9.50;99.90
14188;DHT22;7175;51.978;5.330;2023-11-21T06:47:50;9.50;99.90
14188;DHT22;7175;51.978;5.330;2023-11-21T06:50:18;9.50;99.90
14188;DHT22;7175;51.978;5.330;2023-11-21T06:52:48;9.60;99.90
14188;DHT22;7175;51.978;5.330;2023-11-21T06:55:18;9.60;99.90
14188;DHT22;7175;51.978;5.330;2023-11-21T06:57:46;9.60;99.90
14188;DHT22;7175;51.978;5.330;2023-11-21T07:00:17;9.60;99.90
14188;DHT22;7175;51.978;5.330;2023-11-21T07:02:46;9.60;99.90
14188;DHT22;7175;51.978;5.330;2023-11-21T07:05:15;9.60;99.90
14188;DHT22;7175;51.978;5.330;2023-11-21T07:07:48;9.60;99.90
14188;DHT22;7175;51.978;5.330;2023-11-21T07:10:18;9.60;99.90
14188;DHT22;7175;51.978;5.330;2023-11-21T07:12:46;9.60;99.90
14188;DHT22;7175;51.978;5.330;2023-11-21T07:15:16;9.60;99.90
14188;DHT22;7175;51.978;5.330;2023-11-21T07:17:47;9.60;99.90
14188;DHT22;7175;51.978;5.330;2023-11-21T07:20:16;9.70;99.90
14188;DHT22;7175;51.978;5.330;2023-11-21T07:22:45;9.70;99.90
14188;DHT22;7175;51.978;5.330;2023-11-21T07:25:13;9.70;99.90
14188;DHT22;7175;51.978;5.330;2023-11-21T07:27:43;9.70;99.90
14188;DHT22;7175;51.978;5.330;2023-11-21T07:30:13;9.80;99.90
14188;DHT22;7175;51.978;5.330;2023-11-21T07:32:43;9.80;99.90
14188;DHT22;7175;51.978;5.330;2023-11-21T07:35:15;9.80;99.90
14188;DHT22;7175;51.978;5.330;2023-11-21T07:37:45;9.80;99.90
14188;DHT22;7175;51.978;5.330;2023-11-21T07:40:16;9.90;99.90
14188;DHT22;7175;51.978;5.330;2023-11-21T07:42:46;9.90;99.90
14188;DHT22;7175;51.978;5.330;2023-11-21T07:45:14;9.90;99.90
14188;DHT22;7175;51.978;5.330;2023-11-21T07:47:43;10.00;99.90
14188;DHT22;7175;51.978;5.330;2023-11-21T07:50:11;10.00;99.90
14188;DHT22;7175;51.978;5.330;2023-11-21T07:52:40;10.00;99.90
14188;DHT22;7175;51.978;5.330;2023-11-21T07:55:08;10.10;99.90
14188;DHT22;7175;51.978;5.330;2023-11-21T07:57:36;10.00;99.90
14188;DHT22;7175;51.978;5.330;2023-11-21T08:00:07;9.90;99.90
14188;DHT22;7175;51.978;5.330;2023-11-21T08:02:39;10.00;99.90
14188;DHT22;7175;51.978;5.330;2023-11-21T08:05:09;10.00;99.90
14188;DHT22;7175;51.978;5.330;2023-11-21T08:07:50;10.10;99.90
14188;DHT22;7175;51.978;5.330;2023-11-21T08:10:18;10.10;99.90
14188;DHT22;7175;51.978;5.330;2023-11-21T08:12:47;10.20;99.90
14188;DHT22;7175;51.978;5.330;2023-11-21T08:15:18;10.30;99.90
14188;DHT22;7175;51.978;5.330;2023-11-21T08:17:46;10.30;99.90
14188;DHT22;7175;51.978;5.330;2023-11-21T08:20:15;10.40;99.90
14188;DHT22;7175;51.978;5.330;2023-11-21T08:22:45;10.40;99.90
14188;DHT22;7175;51.978;5.330;2023-11-21T08:25:14;10.50;99.90
14188;DHT22;7175;51.978;5.330;2023-11-21T08:27:44;10.50;99.90
14188;DHT22;7175;51.978;5.330;2023-11-21T08:30:12;10.50;99.90
14188;DHT22;7175;51.978;5.330;2023-11-21T08:32:42;10.50;99.90
14188;DHT22;7175;51.978;5.330;2023-11-21T08:35:10;10.50;99.90
14188;DHT22;7175;51.978;5.330;2023-11-21T08:37:39;10.50;99.90
14188;DHT22;7175;51.978;5.330;2023-11-21T08:40:08;10.50;99.90
14188;DHT22;7175;51.978;5.330;2023-11-21T08:42:39;10.60;99.90
14188;DHT22;7175;51.978;5.330;2023-11-21T08:45:08;10.60;99.90
14188;DHT22;7175;51.978;5.330;2023-11-21T08:47:36;10.70;99.90
14188;DHT22;7175;51.978;5.330;2023-11-21T08:50:07;10.70;99.90
14188;DHT22;7175;51.978;5.330;2023-11-21T08:52:35;10.80;99.90
14188;DHT22;7175;51.978;5.330;2023-11-21T08:55:04;10.80;99.90
14188;DHT22;7175;51.978;5.330;2023-11-21T08:57:35;10.80;99.90
14188;DHT22;7175;51.978;5.330;2023-11-21T09:00:03;10.90;99.90
14188;DHT22;7175;51.978;5.330;2023-11-21T09:02:35;11.00;99.90
14188;DHT22;7175;51.978;5.330;2023-11-21T09:05:06;11.00;99.90
14188;DHT22;7175;51.978;5.330;2023-11-21T09:07:36;11.00;99.90
14188;DHT22;7175;51.978;5.330;2023-11-21T09:10:05;11.00;99.90
14188;DHT22;7175;51.978;5.330;2023-11-21T09:12:39;11.10;99.90
14188;DHT22;7175;51.978;5.330;2023-11-21T09:15:09;11.10;99.90
14188;DHT22;7175;51.978;5.330;2023-11-21T09:17:38;11.10;99.90
14188;DHT22;7175;51.978;5.330;2023-11-21T09:20:10;11.10;99.90
14188;DHT22;7175;51.978;5.330;2023-11-21T09:22:38;11.10;99.90
14188;DHT22;7175;51.978;5.330;2023-11-21T09:25:08;11.20;99.90
14188;DHT22;7175;51.978;5.330;2023-11-21T09:27:36;11.20;99.90
14188;DHT22;7175;51.978;5.330;2023-11-21T09:30:05;11.30;99.90
14188;DHT22;7175;51.978;5.330;2023-11-21T09:32:37;11.40;99.90
14188;DHT22;7175;51.978;5.330;2023-11-21T09:35:09;11.40;99.90
14188;DHT22;7175;51.978;5.330;2023-11-21T09:37:38;11.50;99.90
14188;DHT22;7175;51.978;5.330;2023-11-21T09:40:10;11.60;99.90
14188;DHT22;7175;51.978;5.330;2023-11-21T09:42:43;11.60;99.90
14188;DHT22;7175;51.978;5.330;2023-11-21T09:45:21;11.60;99.90
14188;DHT22;7175;51.978;5.330;2023-11-21T09:47:53;11.70;99.90
14188;DHT22;7175;51.978;5.330;2023-11-21T09:50:24;11.70;99.90
14188;DHT22;7175;51.978;5.330;2023-11-21T09:53:02;11.70;99.90
14188;DHT22;7175;51.978;5.330;2023-11-21T09:55:35;11.60;99.90
14188;DHT22;7175;51.978;5.330;2023-11-21T09:58:04;11.70;99.90
14188;DHT22;7175;51.978;5.330;2023-11-21T10:00:34;11.70;99.90
14188;DHT22;7175;51.978;5.330;2023-11-21T10:03:02;11.60;99.90
14188;DHT22;7175;51.978;5.330;2023-11-21T10:05:32;11.70;99.90
14188;DHT22;7175;51.978;5.330;2023-11-21T10:08:02;11.70;99.90
14188;DHT22;7175;51.978;5.330;2023-11-21T10:10:33;11.60;99.90
14188;DHT22;7175;51.978;5.330;2023-11-21T10:13:03;11.60;99.90
14188;DHT22;7175;51.978;5.330;2023-11-21T10:15:34;11.60;99.90
14188;DHT22;7175;51.978;5.330;2023-11-21T10:18:03;11.60;99.90
14188;DHT22;7175;51.978;5.330;2023-11-21T10:20:35;11.50;99.90
14188;DHT22;7175;51.978;5.330;2023-11-21T10:23:04;11.50;99.90
14188;DHT22;7175;51.978;5.330;2023-11-21T10:25:34;11.50;99.90
14188;DHT22;7175;51.978;5.330;2023-11-21T10:28:04;11.50;99.90
14188;DHT22;7175;51.978;5.330;2023-11-21T10:30:35;11.50;99.90
14188;DHT22;7175;51.978;5.330;2023-11-21T10:33:04;11.50;99.90
14188;DHT22;7175;51.978;5.330;2023-11-21T10:35:49;11.60;99.90
14188;DHT22;7175;51.978;5.330;2023-11-21T10:38:18;11.60;99.90
14188;DHT22;7175;51.978;5.330;2023-11-21T10:40:48;11.60;99.90
14188;DHT22;7175;51.978;5.330;2023-11-21T10:43:17;11.70;99.90
14188;DHT22;7175;51.978;5.330;2023-11-21T10:45:46;11.60;99.90
14188;DHT22;7175;51.978;5.330;2023-11-21T10:48:15;11.60;99.90
14188;DHT22;7175;51.978;5.330;2023-11-21T10:50:45;11.60;99.90
14188;DHT22;7175;51.978;5.330;2023-11-21T10:53:15;11.60;99.90
14188;DHT22;7175;51.978;5.330;2023-11-21T10:55:44;11.50;99.90
14188;DHT22;7175;51.978;5.330;2023-11-21T10:58:14;11.50;99.90
14188;DHT22;7175;51.978;5.330;2023-11-21T11:00:43;11.50;99.90
14188;DHT22;7175;51.978;5.330;2023-11-21T11:03:13;11.50;99.90
14188;DHT22;7175;51.978;5.330;2023-11-21T11:05:44;11.50;99.90
14188;DHT22;7175;51.978;5.330;2023-11-21T11:08:21;11.40;99.90
14188;DHT22;7175;51.978;5.330;2023-11-21T11:10:54;11.50;99.90
14188;DHT22;7175;51.978;5.330;2023-11-21T11:13:23;11.40;99.90
14188;DHT22;7175;51.978;5.330;2023-11-21T11:15:58;11.40;99.90
14188;DHT22;7175;51.978;5.330;2023-11-21T11:18:29;11.40;99.90
14188;DHT22;7175;51.978;5.330;2023-11-21T11:21:01;11.40;99.90
14188;DHT22;7175;51.978;5.330;2023-11-21T11:23:47;11.40;99.90
14188;DHT22;7175;51.978;5.330;2023-11-21T11:26:27;11.40;99.90
14188;DHT22;7175;51.978;5.330;2023-11-21T11:29:05;11.40;99.90
14188;DHT22;7175;51.978;5.330;2023-11-21T11:31:42;11.50;99.90
14188;DHT22;7175;51.978;5.330;2023-11-21T11:34:21;11.40;99.90
14188;DHT22;7175;51.978;5.330;2023-11-21T11:36:55;11.40;99.90
14188;DHT22;7175;51.978;5.330;2023-11-21T11:39:37;11.40;99.90
14188;DHT22;7175;51.978;5.330;2023-11-21T11:42:13;11.40;99.90
14188;DHT22;7175;51.978;5.330;2023-11-21T11:44:51;11.40;99.90
14188;DHT22;7175;51.978;5.330;2023-11-21T11:47:25;11.40;99.90
14188;DHT22;7175;51.978;5.330;2023-11-21T11:50:04;11.40;99.90
14188;DHT22;7175;51.978;5.330;2023-11-21T11:52:39;11.40;99.90
14188;DHT22;7175;51.978;5.330;2023-11-21T11:55:11;11.40;99.90
14188;DHT22;7175;51.978;5.330;2023-11-21T11:57:42;11.30;99.90
14188;DHT22;7175;51.978;5.330;2023-11-21T12:00:17;11.30;99.90
14188;DHT22;7175;51.978;5.330;2023-11-21T12:02:49;11.30;99.90
14188;DHT22;7175;51.978;5.330;2023-11-21T12:05:19;11.20;99.90
14188;DHT22;7175;51.978;5.330;2023-11-21T12:07:51;11.30;99.90
14188;DHT22;7175;51.978;5.330;2023-11-21T12:10:35;11.30;99.90
14188;DHT22;7175;51.978;5.330;2023-11-21T12:13:06;11.30;99.90
14188;DHT22;7175;51.978;5.330;2023-11-21T12:15:45;11.30;99.90
14188;DHT22;7175;51.978;5.330;2023-11-21T12:18:14;11.40;99.90
14188;DHT22;7175;51.978;5.330;2023-11-21T12:20:43;11.40;99.90
14188;DHT22;7175;51.978;5.330;2023-11-21T12:23:17;11.40;99.90
14188;DHT22;7175;51.978;5.330;2023-11-21T12:25:52;11.40;99.90
14188;DHT22;7175;51.978;5.330;2023-11-21T12:28:23;11.40;99.90
14188;DHT22;7175;51.978;5.330;2023-11-21T12:30:54;11.50;99.90
14188;DHT22;7175;51.978;5.330;2023-11-21T12:33:41;11.50;99.90
14188;DHT22;7175;51.978;5.330;2023-11-21T12:36:12;11.60;99.90
14188;DHT22;7175;51.978;5.330;2023-11-21T12:38:56;11.60;99.90
14188;DHT22;7175;51.978;5.330;2023-11-21T12:41:27;11.60;99.90
14188;DHT22;7175;51.978;5.330;2023-11-21T12:43:55;11.60;99.90
14188;DHT22;7175;51.978;5.330;2023-11-21T12:46:25;11.60;99.90
14188;DHT22;7175;51.978;5.330;2023-11-21T12:48:59;11.60;99.90
14188;DHT22;7175;51.978;5.330;2023-11-21T12:51:27;11.50;99.90
14188;DHT22;7175;51.978;5.330;2023-11-21T12:53:59;11.60;99.90
14188;DHT22;7175;51.978;5.330;2023-11-21T12:56:31;11.50;99.90
14188;DHT22;7175;51.978;5.330;2023-11-21T12:58:59;11.50;99.90
14188;DHT22;7175;51.978;5.330;2023-11-21T13:01:32;11.50;99.90
14188;DHT22;7175;51.978;5.330;2023-11-21T13:04:01;11.60;99.90
14188;DHT22;7175;51.978;5.330;2023-11-21T13:06:31;11.60;99.90
14188;DHT22;7175;51.978;5.330;2023-11-21T13:09:05;11.50;99.90
14188;DHT22;7175;51.978;5.330;2023-11-21T13:11:36;11.50;99.90
14188;DHT22;7175;51.978;5.330;2023-11-21T13:14:10;11.50;99.90
14188;DHT22;7175;51.978;5.330;2023-11-21T13:16:41;11.50;99.90
14188;DHT22;7175;51.978;5.330;2023-11-21T13:19:15;11.50;99.90
14188;DHT22;7175;51.978;5.330;2023-11-21T13:21:45;11.40;99.90
14188;DHT22;7175;51.978;5.330;2023-11-21T13:24:15;11.40;99.90
14188;DHT22;7175;51.978;5.330;2023-11-21T13:26:48;11.40;99.90
14188;DHT22;7175;51.978;5.330;2023-11-21T13:29:19;11.40;99.90
14188;DHT22;7175;51.978;5.330;2023-11-21T13:31:48;11.40;99.90
14188;DHT22;7175;51.978;5.330;2023-11-21T13:34:17;11.30;99.90
14188;DHT22;7175;51.978;5.330;2023-11-21T13:36:54;11.40;99.90
14188;DHT22;7175;51.978;5.330;2023-11-21T13:39:26;11.40;99.90
14188;DHT22;7175;51.978;5.330;2023-11-21T13:41:57;11.50;99.90
14188;DHT22;7175;51.978;5.330;2023-11-21T13:44:26;11.60;99.90
14188;DHT22;7175;51.978;5.330;2023-11-21T13:47:09;11.50;99.90
14188;DHT22;7175;51.978;5.330;2023-11-21T13:49:40;11.60;99.90
14188;DHT22;7175;51.978;5.330;2023-11-21T13:52:10;11.60;99.90
14188;DHT22;7175;51.978;5.330;2023-11-21T13:54:42;11.60;99.90
14188;DHT22;7175;51.978;5.330;2023-11-21T13:57:12;11.60;99.90
14188;DHT22;7175;51.978;5.330;2023-11-21T13:59:41;11.50;99.90
14188;DHT22;7175;51.978;5.330;2023-11-21T14:02:12;11.50;99.90
14188;DHT22;7175;51.978;5.330;2023-11-21T14:04:46;11.40;99.90
14188;DHT22;7175;51.978;5.330;2023-11-21T14:07:26;11.40;99.90
14188;DHT22;7175;51.978;5.330;2023-11-21T14:10:07;11.40;99.90
14188;DHT22;7175;51.978;5.330;2023-11-21T14:12:45;11.40;99.90
14188;DHT22;7175;51.978;5.330;2023-11-21T14:15:13;11.40;99.90
14188;DHT22;7175;51.978;5.330;2023-11-21T14:17:46;11.40;99.90
14188;DHT22;7175;51.978;5.330;2023-11-21T14:20:14;11.30;99.90
14188;DHT22;7175;51.978;5.330;2023-11-21T14:22:43;11.30;99.90
14188;DHT22;7175;51.978;5.330;2023-11-21T14:25:12;11.10;99.90
14188;DHT22;7175;51.978;5.330;2023-11-21T14:27:43;11.10;99.90
14188;DHT22;7175;51.978;5.330;2023-11-21T14:30:12;11.00;99.90
14188;DHT22;7175;51.978;5.330;2023-11-21T14:32:42;11.00;99.90
14188;DHT22;7175;51.978;5.330;2023-11-21T14:35:10;11.00;99.90
14188;DHT22;7175;51.978;5.330;2023-11-21T14:37:39;10.90;99.90
14188;DHT22;7175;51.978;5.330;2023-11-21T14:40:08;11.00;99.90
14188;DHT22;7175;51.978;5.330;2023-11-21T14:42:37;10.90;99.90
14188;DHT22;7175;51.978;5.330;2023-11-21T14:45:10;10.90;99.90
14188;DHT22;7175;51.978;5.330;2023-11-21T14:47:39;10.90;99.90
14188;DHT22;7175;51.978;5.330;2023-11-21T14:50:13;10.90;99.90
14188;DHT22;7175;51.978;5.330;2023-11-21T14:53:01;10.80;99.90
14188;DHT22;7175;51.978;5.330;2023-11-21T14:55:34;10.80;99.90
14188;DHT22;7175;51.978;5.330;2023-11-21T14:58:21;10.80;99.90
14188;DHT22;7175;51.978;5.330;2023-11-21T15:00:56;10.70;99.90
14188;DHT22;7175;51.978;5.330;2023-11-21T15:03:28;10.70;99.90
14188;DHT22;7175;51.978;5.330;2023-11-21T15:06:10;10.60;99.90
14188;DHT22;7175;51.978;5.330;2023-11-21T15:08:54;10.60;99.90
14188;DHT22;7175;51.978;5.330;2023-11-21T15:11:42;10.60;99.90
14188;DHT22;7175;51.978;5.330;2023-11-21T15:14:10;10.60;99.90
14188;DHT22;7175;51.978;5.330;2023-11-21T15:16:44;10.60;99.90
14188;DHT22;7175;51.978;5.330;2023-11-21T15:19:17;10.50;99.90
14188;DHT22;7175;51.978;5.330;2023-11-21T15:21:52;10.60;99.90
14188;DHT22;7175;51.978;5.330;2023-11-21T15:24:20;10.50;99.90
14188;DHT22;7175;51.978;5.330;2023-11-21T15:26:48;10.50;99.90
14188;DHT22;7175;51.978;5.330;2023-11-21T15:29:17;10.40;99.90
14188;DHT22;7175;51.978;5.330;2023-11-21T15:31:49;10.40;99.90
14188;DHT22;7175;51.978;5.330;2023-11-21T15:34:18;10.30;99.90
14188;DHT22;7175;51.978;5.330;2023-11-21T15:36:46;10.30;99.90
14188;DHT22;7175;51.978;5.330;2023-11-21T15:39:17;10.30;99.90
14188;DHT22;7175;51.978;5.330;2023-11-21T15:41:44;10.20;99.90
14188;DHT22;7175;51.978;5.330;2023-11-21T15:44:15;10.20;99.90
14188;DHT22;7175;51.978;5.330;2023-11-21T15:46:43;10.20;99.90
14188;DHT22;7175;51.978;5.330;2023-11-21T15:49:13;10.20;99.90
14188;DHT22;7175;51.978;5.330;2023-11-21T15:51:45;10.20;99.90
14188;DHT22;7175;51.978;5.330;2023-11-21T15:54:19;10.10;99.90
14188;DHT22;7175;51.978;5.330;2023-11-21T15:56:48;10.10;99.90
14188;DHT22;7175;51.978;5.330;2023-11-21T15:59:16;10.10;99.90
14188;DHT22;7175;51.978;5.330;2023-11-21T16:01:44;10.10;99.90
14188;DHT22;7175;51.978;5.330;2023-11-21T16:04:17;10.00;99.90
14188;DHT22;7175;51.978;5.330;2023-11-21T16:06:45;10.00;99.90
14188;DHT22;7175;51.978;5.330;2023-11-21T16:09:14;10.10;99.90
14188;DHT22;7175;51.978;5.330;2023-11-21T16:11:49;10.10;99.90
14188;DHT22;7175;51.978;5.330;2023-11-21T16:14:22;10.10;99.90